createdAt,value
2018-05-07T00:00:03.905Z,11.15
2018-05-07T00:01:03.985Z,11.09
2018-05-07T00:02:04.136Z,11.09
2018-05-07T00:03:03.869Z,11.11
2018-05-07T00:04:03.629Z,11.04
2018-05-07T00:05:03.854Z,11.15
2018-05-07T00:06:04.104Z,11.15
2018-05-07T00:07:04.119Z,11.14
2018-05-07T00:08:03.860Z,11.07
2018-05-07T00:09:04.017Z,11.19
2018-05-07T00:10:03.830Z,11.1
2018-05-07T00:11:04.116Z,11.15
2018-05-07T00:12:03.815Z,11.24
2018-05-07T00:13:04.126Z,11.21
2018-05-07T00:14:03.853Z,11.27
2018-05-07T00:15:03.524Z,11.24
2018-05-07T00:16:03.790Z,11.27
2018-05-07T00:17:04.024Z,11.28
2018-05-07T00:18:03.753Z,11.27
2018-05-07T00:19:04.003Z,11.28
2018-05-07T00:20:03.998Z,11.27
2018-05-07T00:21:03.477Z,11.32
2018-05-07T00:22:03.725Z,11.33
2018-05-07T00:23:03.968Z,11.35
2018-05-07T00:24:03.958Z,11.29
2018-05-07T00:25:03.978Z,11.25
2018-05-07T00:26:03.715Z,11.17
2018-05-07T00:27:03.701Z,11.22
2018-05-07T00:28:03.677Z,11.18
2018-05-07T00:29:03.666Z,11.09
2018-05-07T00:30:03.659Z,11.17
2018-05-07T00:31:03.908Z,11.14
2018-05-07T00:32:03.659Z,11.15
2018-05-07T00:33:03.382Z,11.15
2018-05-07T00:34:03.891Z,11.06
2018-05-07T00:35:03.976Z,11.04
2018-05-07T00:36:03.873Z,11.07
2018-05-07T00:37:03.604Z,11.1
2018-05-07T00:38:03.596Z,11.09
2018-05-07T00:39:03.589Z,11.11
2018-05-07T00:40:03.834Z,11.15
2018-05-07T00:41:03.829Z,11.07
2018-05-07T00:42:03.817Z,11.07
2018-05-07T00:43:03.815Z,11.11
2018-05-07T00:44:03.801Z,11.14
2018-05-07T00:45:03.794Z,11.06
2018-05-07T00:46:03.535Z,11.07
2018-05-07T00:47:03.536Z,11.07
2018-05-07T00:48:03.768Z,11.11
2018-05-07T00:49:03.762Z,11.14
2018-05-07T00:50:03.764Z,11.09
2018-05-07T00:51:03.748Z,11.02
2018-05-07T00:52:03.489Z,11.04
2018-05-07T00:53:03.731Z,11
2018-05-07T00:54:03.724Z,11.03
2018-05-07T00:55:03.714Z,11.02
2018-05-07T00:56:03.710Z,11.07
2018-05-07T00:57:03.704Z,11
2018-05-07T00:58:03.694Z,11.1
2018-05-07T00:59:03.695Z,11.1
2018-05-07T01:00:03.421Z,11.04
2018-05-07T01:01:03.411Z,11.04
2018-05-07T01:02:03.406Z,11.09
2018-05-07T01:03:03.662Z,11.03
2018-05-07T01:04:03.397Z,11.04
2018-05-07T01:05:03.717Z,10.92
2018-05-07T01:06:03.627Z,10.91
2018-05-07T01:07:03.625Z,10.96
2018-05-07T01:08:03.612Z,10.96
2018-05-07T01:09:03.612Z,10.99
2018-05-07T01:10:03.598Z,11
2018-05-07T01:11:03.338Z,10.92
2018-05-07T01:12:03.325Z,10.91
2018-05-07T01:13:03.575Z,10.94
2018-05-07T01:14:03.562Z,10.84
2018-05-07T01:15:03.553Z,10.92
2018-05-07T01:16:03.545Z,10.91
2018-05-07T01:17:03.285Z,10.92
2018-05-07T01:18:03.531Z,10.86
2018-05-07T01:19:03.271Z,10.92
2018-05-07T01:20:03.022Z,10.89
2018-05-07T01:21:03.274Z,10.86
2018-05-07T01:22:03.259Z,10.86
2018-05-07T01:23:03.239Z,10.82
2018-05-07T01:24:03.250Z,10.84
2018-05-07T01:25:03.474Z,10.86
2018-05-07T01:26:03.480Z,10.78
2018-05-07T01:27:03.203Z,10.84
2018-05-07T01:28:03.531Z,10.79
2018-05-07T01:29:03.451Z,10.74
2018-05-07T01:30:03.436Z,10.68
2018-05-07T01:31:03.451Z,10.73
2018-05-07T01:32:03.165Z,10.73
2018-05-07T01:33:03.416Z,10.78
2018-05-07T01:34:03.405Z,10.76
2018-05-07T01:35:03.401Z,10.71
2018-05-07T01:36:03.216Z,10.61
2018-05-07T01:37:03.385Z,10.64
2018-05-07T01:38:03.126Z,10.73
2018-05-07T01:39:03.108Z,10.73
2018-05-07T01:40:03.474Z,10.63
2018-05-07T01:41:03.352Z,10.68
2018-05-07T01:42:03.087Z,10.73
2018-05-07T01:43:03.076Z,10.7
2018-05-07T01:44:03.091Z,10.74
2018-05-07T01:45:03.325Z,10.73
2018-05-07T01:46:03.051Z,10.81
2018-05-07T01:47:03.318Z,10.79
2018-05-07T01:48:03.044Z,10.73
2018-05-07T01:49:03.302Z,10.7
2018-05-07T01:50:03.019Z,10.79
2018-05-07T01:51:02.758Z,10.73
2018-05-07T01:52:03.259Z,10.76
2018-05-07T01:53:02.995Z,10.66
2018-05-07T01:54:02.732Z,10.71
2018-05-07T01:55:02.984Z,10.64
2018-05-07T01:56:02.977Z,10.61
2018-05-07T01:57:03.218Z,10.53
2018-05-07T01:58:03.211Z,10.63
2018-05-07T01:59:02.943Z,10.52
2018-05-07T02:00:02.967Z,10.66
2018-05-07T02:01:02.674Z,10.6
2018-05-07T02:02:02.920Z,10.59
2018-05-07T02:03:02.911Z,10.52
2018-05-07T02:04:03.154Z,10.59
2018-05-07T02:05:02.899Z,10.6
2018-05-07T02:06:03.142Z,10.51
2018-05-07T02:07:03.134Z,10.55
2018-05-07T02:08:02.875Z,10.41
2018-05-07T02:09:03.114Z,10.45
2018-05-07T02:10:02.852Z,10.45
2018-05-07T02:11:03.104Z,10.44
2018-05-07T02:12:03.096Z,10.41
2018-05-07T02:13:02.833Z,10.42
2018-05-07T02:14:03.080Z,10.4
2018-05-07T02:15:02.812Z,10.44
2018-05-07T02:16:02.810Z,10.38
2018-05-07T02:17:03.055Z,10.38
2018-05-07T02:18:03.038Z,10.38
2018-05-07T02:19:03.041Z,10.42
2018-05-07T02:20:02.779Z,10.34
2018-05-07T02:21:03.014Z,10.4
2018-05-07T02:22:03.014Z,10.33
2018-05-07T02:23:03.000Z,10.33
2018-05-07T02:24:03.001Z,10.32
2018-05-07T02:25:02.730Z,10.41
2018-05-07T02:26:02.972Z,10.27
2018-05-07T02:27:02.718Z,10.3
2018-05-07T02:28:02.702Z,10.36
2018-05-07T02:29:02.951Z,10.32
2018-05-07T02:30:02.705Z,10.32
2018-05-07T02:31:02.935Z,10.23
2018-05-07T02:32:02.924Z,10.23
2018-05-07T02:33:02.923Z,10.15
2018-05-07T02:34:02.653Z,10.22
2018-05-07T02:35:02.900Z,10.2
2018-05-07T02:36:02.898Z,10.17
2018-05-07T02:37:02.882Z,10.17
2018-05-07T02:38:02.879Z,10.22
2018-05-07T02:39:02.979Z,10.26
2018-05-07T02:40:02.867Z,10.18
2018-05-07T02:41:02.851Z,10.15
2018-05-07T02:42:02.848Z,10.23
2018-05-07T02:43:02.583Z,10.25
2018-05-07T02:44:02.823Z,10.15
2018-05-07T02:45:02.820Z,10.2
2018-05-07T02:46:02.805Z,10.2
2018-05-07T02:47:02.801Z,10.23
2018-05-07T02:48:02.535Z,10.17
2018-05-07T02:49:02.780Z,10.09
2018-05-07T02:50:02.776Z,10.12
2018-05-07T02:51:02.768Z,10.08
2018-05-07T02:52:02.832Z,10.09
2018-05-07T02:53:02.745Z,10.11
2018-05-07T02:54:02.484Z,10.05
2018-05-07T02:55:02.740Z,10.09
2018-05-07T02:56:02.725Z,9.96
2018-05-07T02:57:02.716Z,10.04
2018-05-07T02:58:02.701Z,10.04
2018-05-07T02:59:02.708Z,9.89
2018-05-07T03:00:02.701Z,9.94
2018-05-07T03:01:02.675Z,9.97
2018-05-07T03:02:02.672Z,9.9
2018-05-07T03:03:02.667Z,9.86
2018-05-07T03:04:02.398Z,9.97
2018-05-07T03:05:02.640Z,9.9
2018-05-07T03:06:02.657Z,9.94
2018-05-07T03:07:02.627Z,9.94
2018-05-07T03:08:02.617Z,10.01
2018-05-07T03:09:02.627Z,9.96
2018-05-07T03:10:02.625Z,9.91
2018-05-07T03:11:02.616Z,10.01
2018-05-07T03:12:02.728Z,10.04
2018-05-07T03:13:02.575Z,9.99
2018-05-07T03:14:02.564Z,9.99
2018-05-07T03:15:02.560Z,9.97
2018-05-07T03:16:02.294Z,10.02
2018-05-07T03:17:02.565Z,10.01
2018-05-07T03:18:02.528Z,9.93
2018-05-07T03:19:02.523Z,10.04
2018-05-07T03:20:02.510Z,9.99
2018-05-07T03:21:02.509Z,9.96
2018-05-07T03:22:02.555Z,10.01
2018-05-07T03:23:02.485Z,10.02
2018-05-07T03:24:02.485Z,9.94
2018-05-07T03:25:02.476Z,10.12
2018-05-07T03:26:02.628Z,10.12
2018-05-07T03:27:02.450Z,10.12
2018-05-07T03:28:02.442Z,9.97
2018-05-07T03:29:02.442Z,10.14
2018-05-07T03:30:02.445Z,10.11
2018-05-07T03:31:02.417Z,10.07
2018-05-07T03:32:02.407Z,10.08
2018-05-07T03:33:02.155Z,10.08
2018-05-07T03:34:02.138Z,10.11
2018-05-07T03:35:02.380Z,10.08
2018-05-07T03:36:02.379Z,9.99
2018-05-07T03:37:02.370Z,10.11
2018-05-07T03:38:02.355Z,10.05
2018-05-07T03:39:02.356Z,10.04
2018-05-07T03:40:02.085Z,9.96
2018-05-07T03:41:02.078Z,10.02
2018-05-07T03:42:01.817Z,9.93
2018-05-07T03:43:02.319Z,10.02
2018-05-07T03:44:02.312Z,10.01
2018-05-07T03:45:02.308Z,9.99
2018-05-07T03:46:02.287Z,9.93
2018-05-07T03:47:02.291Z,10.01
2018-05-07T03:48:02.272Z,10.02
2018-05-07T03:49:02.273Z,10.12
2018-05-07T03:50:02.262Z,10.05
2018-05-07T03:51:02.248Z,10.12
2018-05-07T03:52:02.249Z,10.08
2018-05-07T03:53:02.230Z,10.07
2018-05-07T03:54:02.225Z,10.17
2018-05-07T03:55:01.963Z,10.22
2018-05-07T03:56:01.953Z,10.18
2018-05-07T03:57:01.688Z,10.25
2018-05-07T03:58:02.185Z,10.32
2018-05-07T03:59:02.176Z,10.23
2018-05-07T04:00:02.167Z,10.33
2018-05-07T04:01:02.163Z,10.38
2018-05-07T04:02:02.160Z,10.48
2018-05-07T04:03:01.891Z,10.64
2018-05-07T04:04:01.889Z,10.89
2018-05-07T04:05:02.132Z,11.1
2018-05-07T04:06:02.133Z,11.27
2018-05-07T04:07:02.114Z,11.44
2018-05-07T04:08:02.109Z,11.57
2018-05-07T04:09:02.094Z,11.8
2018-05-07T04:10:02.090Z,11.98
2018-05-07T04:11:02.089Z,12.21
2018-05-07T04:12:02.077Z,12.45
2018-05-07T04:13:01.813Z,12.71
2018-05-07T04:14:02.061Z,12.87
2018-05-07T04:15:02.060Z,13.08
2018-05-07T04:16:02.055Z,13.39
2018-05-07T04:17:02.039Z,13.62
2018-05-07T04:18:02.036Z,13.73
2018-05-07T04:19:02.029Z,14.07
2018-05-07T04:20:01.777Z,14.2
2018-05-07T04:21:01.775Z,14.21
2018-05-07T04:22:01.761Z,14.46
2018-05-07T04:23:01.759Z,14.7
2018-05-07T04:24:02.008Z,14.83
2018-05-07T04:25:02.004Z,15.27
2018-05-07T04:26:01.993Z,15.53
2018-05-07T04:27:01.988Z,15.87
2018-05-07T04:28:01.732Z,16.11
2018-05-07T04:29:01.478Z,16.38
2018-05-07T04:30:01.976Z,16.61
2018-05-07T04:31:01.974Z,16.71
2018-05-07T04:32:01.989Z,16.86
2018-05-07T04:33:01.978Z,17.01
2018-05-07T04:34:01.712Z,17.26
2018-05-07T04:35:01.965Z,17.38
2018-05-07T04:36:01.965Z,17.59
2018-05-07T04:37:01.959Z,17.66
2018-05-07T04:38:01.961Z,17.92
2018-05-07T04:39:01.953Z,17.99
2018-05-07T04:40:01.971Z,18.27
2018-05-07T04:41:01.965Z,18.47
2018-05-07T04:42:01.697Z,18.85
2018-05-07T04:43:01.953Z,18.99
2018-05-07T04:44:01.947Z,19.25
2018-05-07T04:45:01.950Z,19.4
2018-05-07T04:46:01.956Z,19.68
2018-05-07T04:47:01.946Z,19.8
2018-05-07T04:48:01.947Z,20.05
2018-05-07T04:49:01.951Z,20.35
2018-05-07T04:50:01.957Z,20.73
2018-05-07T04:51:01.950Z,20.98
2018-05-07T04:52:01.947Z,21.16
2018-05-07T04:53:01.949Z,21.35
2018-05-07T04:54:01.952Z,21.64
2018-05-07T04:55:02.046Z,21.84
2018-05-07T04:56:01.958Z,22.17
2018-05-07T04:57:01.956Z,22.49
2018-05-07T04:58:01.452Z,22.77
2018-05-07T04:59:01.705Z,22.98
2018-05-07T05:00:01.966Z,23.09
2018-05-07T05:01:01.722Z,23.22
2018-05-07T05:02:01.979Z,23.48
2018-05-07T05:03:01.720Z,23.8
2018-05-07T05:04:01.980Z,23.95
2018-05-07T05:05:01.979Z,24.18
2018-05-07T05:06:01.986Z,24.43
2018-05-07T05:07:01.739Z,24.73
2018-05-07T05:08:01.997Z,24.95
2018-05-07T05:09:01.993Z,25.27
2018-05-07T05:10:01.998Z,25.5
2018-05-07T05:11:02.010Z,25.69
2018-05-07T05:12:02.006Z,25.95
2018-05-07T05:13:02.015Z,26.29
2018-05-07T05:14:02.025Z,26.57
2018-05-07T05:15:02.031Z,26.72
2018-05-07T05:16:02.031Z,27.04
2018-05-07T05:17:02.057Z,27.17
2018-05-07T05:18:02.045Z,27.41
2018-05-07T05:19:02.194Z,27.59
2018-05-07T05:20:02.054Z,27.72
2018-05-07T05:21:01.934Z,28
2018-05-07T05:22:02.071Z,28.11
2018-05-07T05:23:02.084Z,28.19
2018-05-07T05:24:02.092Z,28.52
2018-05-07T05:25:02.091Z,28.61
2018-05-07T05:26:01.850Z,28.85
2018-05-07T05:27:02.113Z,28.93
2018-05-07T05:28:02.123Z,28.98
2018-05-07T05:29:02.125Z,29.06
2018-05-07T05:30:02.210Z,29.27
2018-05-07T05:31:01.898Z,29.36
2018-05-07T05:32:02.155Z,29.63
2018-05-07T05:33:02.166Z,29.79
2018-05-07T05:34:01.913Z,29.9
2018-05-07T05:35:02.178Z,29.95
2018-05-07T05:36:02.183Z,29.94
2018-05-07T05:37:02.199Z,30.08
2018-05-07T05:38:02.214Z,30.23
2018-05-07T05:39:02.221Z,30.39
2018-05-07T05:40:02.221Z,30.53
2018-05-07T05:41:02.233Z,30.65
2018-05-07T05:42:02.247Z,30.83
2018-05-07T05:43:02.262Z,31.01
2018-05-07T05:44:02.265Z,31.09
2018-05-07T05:45:02.276Z,31.16
2018-05-07T05:46:01.773Z,31.41
2018-05-07T05:47:02.292Z,31.5
2018-05-07T05:48:02.296Z,31.69
2018-05-07T05:49:02.312Z,31.86
2018-05-07T05:50:02.206Z,31.93
2018-05-07T05:51:02.332Z,32.07
2018-05-07T05:52:02.343Z,32.11
2018-05-07T05:53:02.346Z,32.28
2018-05-07T05:54:02.360Z,32.32
2018-05-07T05:55:02.683Z,32.52
2018-05-07T05:56:02.391Z,32.51
2018-05-07T05:57:02.396Z,32.57
2018-05-07T05:58:02.418Z,32.51
2018-05-07T05:59:02.418Z,32.32
2018-05-07T06:00:02.435Z,32.35
2018-05-07T06:01:02.443Z,32.47
2018-05-07T06:02:02.466Z,32.51
2018-05-07T06:03:02.221Z,32.55
2018-05-07T06:04:02.696Z,32.5
2018-05-07T06:05:02.486Z,32.69
2018-05-07T06:06:02.507Z,32.65
2018-05-07T06:07:02.254Z,32.81
2018-05-07T06:08:02.274Z,32.94
2018-05-07T06:09:02.777Z,32.99
2018-05-07T06:10:02.538Z,33.04
2018-05-07T06:11:02.551Z,33.19
2018-05-07T06:12:02.567Z,33.34
2018-05-07T06:13:02.577Z,33.37
2018-05-07T06:14:02.584Z,33.49
2018-05-07T06:15:02.918Z,33.49
2018-05-07T06:16:02.356Z,33.49
2018-05-07T06:17:02.384Z,33.45
2018-05-07T06:18:02.636Z,33.59
2018-05-07T06:19:02.658Z,33.73
2018-05-07T06:20:02.659Z,33.84
2018-05-07T06:21:02.677Z,33.94
2018-05-07T06:22:02.693Z,33.94
2018-05-07T06:23:02.699Z,34.12
2018-05-07T06:24:02.714Z,34.17
2018-05-07T06:25:02.487Z,34.28
2018-05-07T06:26:02.481Z,34.35
2018-05-07T06:27:02.759Z,34.28
2018-05-07T06:28:02.766Z,34.27
2018-05-07T06:29:02.778Z,34.42
2018-05-07T06:30:02.577Z,34.43
2018-05-07T06:31:02.805Z,34.5
2018-05-07T06:32:02.567Z,34.49
2018-05-07T06:33:02.865Z,34.53
2018-05-07T06:34:02.850Z,34.64
2018-05-07T06:35:02.899Z,34.72
2018-05-07T06:36:02.378Z,34.81
2018-05-07T06:37:02.907Z,34.8
2018-05-07T06:38:02.680Z,34.8
2018-05-07T06:39:02.669Z,34.91
2018-05-07T06:40:02.937Z,35
2018-05-07T06:41:02.947Z,35.14
2018-05-07T06:42:02.962Z,35.25
2018-05-07T06:43:02.986Z,35.45
2018-05-07T06:44:02.992Z,35.63
2018-05-07T06:45:03.091Z,35.63
2018-05-07T06:46:03.322Z,35.77
2018-05-07T06:47:03.102Z,35.78
2018-05-07T06:48:02.797Z,35.8
2018-05-07T06:49:02.826Z,35.85
2018-05-07T06:50:02.839Z,35.89
2018-05-07T06:51:03.101Z,35.84
2018-05-07T06:52:02.887Z,35.85
2018-05-07T06:53:03.134Z,35.89
2018-05-07T06:54:03.142Z,35.81
2018-05-07T06:55:03.160Z,35.92
2018-05-07T06:56:03.176Z,35.96
2018-05-07T06:57:03.611Z,36.08
2018-05-07T06:58:03.212Z,36.01
2018-05-07T06:59:03.231Z,36.12
2018-05-07T07:00:03.241Z,36.08
2018-05-07T07:01:03.255Z,36.12
2018-05-07T07:02:03.100Z,36.08
2018-05-07T07:03:03.717Z,36
2018-05-07T07:04:03.299Z,36.08
2018-05-07T07:05:03.072Z,36.22
2018-05-07T07:06:03.080Z,36.31
2018-05-07T07:07:03.096Z,36.34
2018-05-07T07:08:03.751Z,36.37
2018-05-07T07:09:03.398Z,36.37
2018-05-07T07:10:03.402Z,36.38
2018-05-07T07:11:03.413Z,36.56
2018-05-07T07:12:03.189Z,36.73
2018-05-07T07:13:03.206Z,36.84
2018-05-07T07:14:03.464Z,37.03
2018-05-07T07:15:03.482Z,37.29
2018-05-07T07:16:03.496Z,37.37
2018-05-07T07:17:03.255Z,37.5
2018-05-07T07:18:03.315Z,37.67
2018-05-07T07:19:03.547Z,37.76
2018-05-07T07:20:03.569Z,38.03
2018-05-07T07:21:03.321Z,38.15
2018-05-07T07:22:03.598Z,38.3
2018-05-07T07:23:03.379Z,38.44
2018-05-07T07:24:03.632Z,38.52
2018-05-07T07:25:03.391Z,38.52
2018-05-07T07:26:03.425Z,38.47
2018-05-07T07:27:03.434Z,38.38
2018-05-07T07:28:03.671Z,38.41
2018-05-07T07:29:03.467Z,38.46
2018-05-07T07:30:03.478Z,38.28
2018-05-07T07:31:03.508Z,38.23
2018-05-07T07:32:03.766Z,38.09
2018-05-07T07:33:03.530Z,37.96
2018-05-07T07:34:03.747Z,37.72
2018-05-07T07:35:03.562Z,37.72
2018-05-07T07:36:03.580Z,37.6
2018-05-07T07:37:03.604Z,37.57
2018-05-07T07:38:03.625Z,37.36
2018-05-07T07:39:03.635Z,37.1
2018-05-07T07:40:03.903Z,37
2018-05-07T07:41:03.937Z,36.81
2018-05-07T07:42:03.953Z,36.65
2018-05-07T07:43:03.705Z,36.41
2018-05-07T07:44:03.978Z,36.22
2018-05-07T07:45:03.986Z,35.9
2018-05-07T07:46:04.013Z,35.75
2018-05-07T07:47:03.883Z,35.59
2018-05-07T07:48:03.533Z,35.28
2018-05-07T07:49:03.556Z,35.1
2018-05-07T07:50:03.819Z,34.84
2018-05-07T07:51:04.092Z,34.58
2018-05-07T07:52:03.859Z,34.27
2018-05-07T07:53:03.871Z,34.15
2018-05-07T07:54:04.150Z,33.98
2018-05-07T07:55:04.171Z,33.79
2018-05-07T07:56:03.927Z,33.63
2018-05-07T07:57:03.940Z,33.57
2018-05-07T07:58:04.211Z,33.53
2018-05-07T07:59:04.239Z,33.51
2018-05-07T08:00:04.277Z,33.49
2018-05-07T08:01:04.262Z,33.45
2018-05-07T08:02:04.296Z,33.31
2018-05-07T08:03:04.312Z,33.28
2018-05-07T08:04:04.315Z,33.22
2018-05-07T08:05:04.091Z,33.22
2018-05-07T08:06:04.090Z,33.31
2018-05-07T08:07:04.387Z,33.49
2018-05-07T08:08:04.116Z,33.6
2018-05-07T08:09:04.133Z,33.86
2018-05-07T08:10:04.407Z,33.87
2018-05-07T08:11:04.172Z,33.97
2018-05-07T08:12:04.264Z,33.93
2018-05-07T08:13:04.454Z,34.09
2018-05-07T08:14:04.210Z,34.06
2018-05-07T08:15:04.501Z,34.1
2018-05-07T08:16:03.992Z,33.9
2018-05-07T08:17:04.293Z,33.65
2018-05-07T08:18:04.535Z,33.45
2018-05-07T08:19:04.316Z,33.38
2018-05-07T08:20:04.305Z,33.35
2018-05-07T08:21:04.090Z,33.15
2018-05-07T08:22:04.594Z,33.11
2018-05-07T08:23:04.633Z,33.01
2018-05-07T08:24:04.379Z,32.92
2018-05-07T08:25:04.632Z,32.87
2018-05-07T08:26:04.398Z,32.81
2018-05-07T08:27:04.417Z,32.67
2018-05-07T08:28:04.679Z,32.47
2018-05-07T08:29:04.437Z,32.18
2018-05-07T08:30:04.724Z,31.8
2018-05-07T08:31:04.800Z,31.47
2018-05-07T08:32:04.976Z,30.97
2018-05-07T08:33:04.497Z,30.64
2018-05-07T08:34:04.761Z,30.47
2018-05-07T08:35:04.785Z,30.35
2018-05-07T08:36:04.791Z,30.23
2018-05-07T08:37:04.842Z,30.08
2018-05-07T08:38:04.585Z,29.98
2018-05-07T08:39:04.830Z,29.65
2018-05-07T08:40:04.846Z,29.3
2018-05-07T08:41:04.873Z,28.89
2018-05-07T08:42:04.878Z,28.34
2018-05-07T08:43:04.893Z,27.97
2018-05-07T08:44:06.375Z,27.6
2018-05-07T08:45:04.661Z,27.32
2018-05-07T08:46:04.403Z,27.14
2018-05-07T08:47:04.932Z,26.94
2018-05-07T08:48:04.422Z,26.72
2018-05-07T08:49:04.937Z,26.58
2018-05-07T08:50:04.698Z,26.47
2018-05-07T08:51:05.123Z,26.25
2018-05-07T08:52:04.965Z,25.9
2018-05-07T08:53:05.028Z,25.7
2018-05-07T08:54:05.004Z,25.61
2018-05-07T08:55:04.986Z,25.35
2018-05-07T08:56:05.017Z,25.18
2018-05-07T08:57:04.998Z,25.13
2018-05-07T08:58:05.007Z,25.03
2018-05-07T08:59:05.023Z,24.83
2018-05-07T09:00:04.820Z,24.76
2018-05-07T09:01:05.055Z,24.55
2018-05-07T09:02:05.205Z,24.28
2018-05-07T09:03:05.030Z,24.15
2018-05-07T09:04:05.513Z,23.95
2018-05-07T09:05:05.047Z,23.84
2018-05-07T09:06:05.041Z,23.7
2018-05-07T09:07:04.810Z,23.69
2018-05-07T09:08:05.287Z,23.53
2018-05-07T09:09:04.816Z,23.39
2018-05-07T09:10:04.540Z,23.25
2018-05-07T09:11:05.050Z,23.2
2018-05-07T09:12:05.284Z,23.05
2018-05-07T09:13:05.087Z,22.97
2018-05-07T09:14:05.072Z,23.01
2018-05-07T09:15:04.838Z,22.86
2018-05-07T09:16:05.066Z,22.9
2018-05-07T09:17:05.076Z,22.8
2018-05-07T09:18:04.856Z,22.9
2018-05-07T09:19:05.153Z,22.8
2018-05-07T09:20:05.063Z,22.9
2018-05-07T09:21:05.066Z,22.83
2018-05-07T09:22:05.092Z,22.82
2018-05-07T09:23:04.814Z,22.79
2018-05-07T09:24:05.072Z,22.72
2018-05-07T09:25:04.820Z,22.77
2018-05-07T09:26:05.075Z,22.72
2018-05-07T09:27:04.580Z,22.7
2018-05-07T09:28:04.830Z,22.7
2018-05-07T09:29:05.155Z,22.64
2018-05-07T09:30:05.077Z,22.58
2018-05-07T09:32:05.073Z,22.58
2018-05-07T09:33:05.073Z,22.62
2018-05-07T09:34:05.075Z,22.64
2018-05-07T09:35:05.107Z,22.6
2018-05-07T09:36:05.128Z,22.68
2018-05-07T09:37:05.244Z,22.75
2018-05-07T09:38:05.089Z,22.77
2018-05-07T09:39:05.084Z,22.79
2018-05-07T09:40:05.091Z,22.85
2018-05-07T09:41:05.096Z,22.8
2018-05-07T09:42:05.107Z,22.82
2018-05-07T09:43:05.353Z,22.85
2018-05-07T09:44:04.828Z,22.8
2018-05-07T09:45:05.101Z,22.83
2018-05-07T09:46:04.827Z,22.83
2018-05-07T09:47:05.083Z,22.82
2018-05-07T09:48:04.579Z,22.83
2018-05-07T09:49:05.085Z,22.85
2018-05-07T09:50:04.882Z,22.91
2018-05-07T09:51:04.576Z,22.94
2018-05-07T09:52:05.100Z,22.86
2018-05-07T09:53:04.845Z,22.86
2018-05-07T09:54:05.111Z,22.86
2018-05-07T09:55:05.124Z,22.95
2018-05-07T09:56:04.905Z,22.85
2018-05-07T09:57:04.967Z,22.85
2018-05-07T09:58:05.140Z,22.88
2018-05-07T09:59:04.830Z,22.82
2018-05-07T10:00:05.117Z,22.8
2018-05-07T10:01:05.092Z,22.92
2018-05-07T10:02:05.138Z,22.92
2018-05-07T10:03:05.148Z,22.94
2018-05-07T10:04:05.344Z,22.86
2018-05-07T10:05:05.107Z,22.95
2018-05-07T10:06:04.864Z,22.95
2018-05-07T10:07:05.144Z,23.02
2018-05-07T10:08:05.172Z,23.01
2018-05-07T10:09:04.915Z,22.97
2018-05-07T10:10:05.193Z,23.05
2018-05-07T10:11:05.207Z,23.09
2018-05-07T10:12:05.107Z,23.01
2018-05-07T10:13:04.848Z,22.95
2018-05-07T10:14:04.591Z,22.95
2018-05-07T10:15:04.835Z,22.94
2018-05-07T10:16:04.839Z,22.94
2018-05-07T10:17:04.954Z,22.9
2018-05-07T10:18:04.894Z,22.92
2018-05-07T10:19:05.098Z,22.97
2018-05-07T10:20:05.086Z,22.95
2018-05-07T10:21:04.837Z,23
2018-05-07T10:22:05.105Z,23.01
2018-05-07T10:23:05.086Z,23.05
2018-05-07T10:24:04.869Z,23.07
2018-05-07T10:25:05.105Z,23.02
2018-05-07T10:26:05.110Z,22.95
2018-05-07T10:27:05.110Z,22.91
2018-05-07T10:28:04.840Z,22.91
2018-05-07T10:29:04.581Z,22.98
2018-05-07T10:30:04.584Z,22.86
2018-05-07T10:31:05.095Z,22.88
2018-05-07T10:32:05.087Z,22.86
2018-05-07T10:33:04.852Z,22.82
2018-05-07T10:34:04.880Z,22.86
2018-05-07T10:35:04.838Z,22.88
2018-05-07T10:36:04.835Z,22.92
2018-05-07T10:37:05.119Z,22.94
2018-05-07T10:38:05.097Z,23
2018-05-07T10:39:04.851Z,22.95
2018-05-07T10:40:05.161Z,22.98
2018-05-07T10:41:04.839Z,22.92
2018-05-07T10:42:07.525Z,22.95
2018-05-07T10:43:04.852Z,22.98
2018-05-07T10:44:05.096Z,22.95
2018-05-07T10:47:05.129Z,22.98
2018-05-07T10:48:05.095Z,23.09
2018-05-07T10:49:05.160Z,23.04
2018-05-07T10:50:04.584Z,23.05
2018-05-07T10:51:05.093Z,22.98
2018-05-07T10:52:05.093Z,23.09
2018-05-07T10:53:05.103Z,23.09
2018-05-07T10:55:06.516Z,23.04
2018-05-07T10:56:05.162Z,23.19
2018-05-07T10:57:05.109Z,23.2
2018-05-07T10:58:05.107Z,23.22
2018-05-07T10:59:05.092Z,23.19
2018-05-07T11:00:05.102Z,23.2
2018-05-07T11:01:04.841Z,23.17
2018-05-07T11:02:05.095Z,23.23
2018-05-07T11:03:05.093Z,23.19
2018-05-07T11:04:05.106Z,23.22
2018-05-07T11:05:04.835Z,23.23
2018-05-07T11:06:05.097Z,23.16
2018-05-07T11:07:04.848Z,23.25
2018-05-07T11:08:04.843Z,23.28
2018-05-07T11:09:04.849Z,23.25
2018-05-07T11:10:05.093Z,23.32
2018-05-07T11:11:05.098Z,23.2
2018-05-07T11:12:04.841Z,23.17
2018-05-07T11:13:04.840Z,23.27
2018-05-07T11:14:04.841Z,23.25
2018-05-07T11:15:05.111Z,23.16
2018-05-07T11:16:04.837Z,23.23
2018-05-07T11:17:05.116Z,23.22
2018-05-07T11:18:05.313Z,23.17
2018-05-07T11:19:05.115Z,23.17
2018-05-07T11:20:04.589Z,23.17
2018-05-07T11:21:05.148Z,23.1
2018-05-07T11:22:05.096Z,23.12
2018-05-07T11:23:04.845Z,23.07
2018-05-07T11:24:05.115Z,22.98
2018-05-07T11:25:04.586Z,23.09
2018-05-07T11:26:05.595Z,23.07
2018-05-07T11:27:04.888Z,23.05
2018-05-07T11:28:04.849Z,23.12
2018-05-07T11:29:05.123Z,23.05
2018-05-07T11:30:05.146Z,23.04
2018-05-07T11:31:05.232Z,23.05
2018-05-07T11:32:04.646Z,23.09
2018-05-07T11:33:04.893Z,23.05
2018-05-07T11:34:05.117Z,23.13
2018-05-07T11:35:05.059Z,23.05
2018-05-07T11:36:05.126Z,23.22
2018-05-07T11:37:05.122Z,23.16
2018-05-07T11:38:05.103Z,23.17
2018-05-07T11:39:05.266Z,23.13
2018-05-07T11:40:04.845Z,23.2
2018-05-07T11:41:04.859Z,23.22
2018-05-07T11:42:04.851Z,23.15
2018-05-07T11:43:05.126Z,23.19
2018-05-07T11:44:05.160Z,23.22
2018-05-07T11:45:05.106Z,23.22
2018-05-07T11:46:04.865Z,23.17
2018-05-07T11:47:04.589Z,23.19
2018-05-07T11:48:05.137Z,23.23
2018-05-07T11:49:05.107Z,23.25
2018-05-07T11:50:05.099Z,23.23
2018-05-07T11:51:05.096Z,23.38
2018-05-07T11:52:04.849Z,23.35
2018-05-07T11:53:04.888Z,23.39
2018-05-07T11:54:05.097Z,23.43
2018-05-07T11:55:04.847Z,23.36
2018-05-07T11:56:05.098Z,23.38
2018-05-07T11:57:04.878Z,23.43
2018-05-07T11:58:04.843Z,23.38
2018-05-07T11:59:05.097Z,23.42
2018-05-07T12:00:04.844Z,23.4
2018-05-07T12:01:05.122Z,23.43
2018-05-07T12:02:04.889Z,23.5
2018-05-07T12:03:05.119Z,23.46
2018-05-07T12:04:05.111Z,23.47
2018-05-07T12:05:05.116Z,23.51
2018-05-07T12:06:04.858Z,23.57
2018-05-07T12:07:04.844Z,23.6
2018-05-07T12:08:04.983Z,23.68
2018-05-07T12:09:04.986Z,23.7
2018-05-07T12:10:04.848Z,23.66
2018-05-07T12:11:04.856Z,23.66
2018-05-07T12:12:05.131Z,23.66
2018-05-07T12:13:04.875Z,23.69
2018-05-07T12:14:05.131Z,23.72
2018-05-07T12:15:04.852Z,23.66
2018-05-07T12:16:04.940Z,23.68
2018-05-07T12:17:05.105Z,23.51
2018-05-07T12:18:05.102Z,23.61
2018-05-07T12:19:04.851Z,23.58
2018-05-07T12:20:05.127Z,23.55
2018-05-07T12:21:04.852Z,23.54
2018-05-07T12:22:04.852Z,23.57
2018-05-07T12:23:05.110Z,23.69
2018-05-07T12:24:05.119Z,23.65
2018-05-07T12:25:05.120Z,23.63
2018-05-07T12:26:05.312Z,23.75
2018-05-07T12:27:05.369Z,23.69
2018-05-07T12:28:05.112Z,23.66
2018-05-07T12:29:05.128Z,23.66
2018-05-07T12:30:05.104Z,23.63
2018-05-07T12:31:05.126Z,23.63
2018-05-07T12:32:05.121Z,23.53
2018-05-07T12:33:04.858Z,23.63
2018-05-07T12:34:04.599Z,23.68
2018-05-07T12:35:05.116Z,23.7
2018-05-07T12:36:04.883Z,23.68
2018-05-07T12:37:04.955Z,23.66
2018-05-07T12:38:05.121Z,23.65
2018-05-07T12:39:05.106Z,23.69
2018-05-07T12:40:05.382Z,23.78
2018-05-07T12:41:05.141Z,23.83
2018-05-07T12:42:05.112Z,23.78
2018-05-07T12:43:05.110Z,23.85
2018-05-07T12:44:04.854Z,23.93
2018-05-07T12:45:04.601Z,23.95
2018-05-07T12:46:04.606Z,23.87
2018-05-07T12:47:05.110Z,23.91
2018-05-07T12:48:05.118Z,23.91
2018-05-07T12:49:04.858Z,24
2018-05-07T12:50:05.115Z,24.03
2018-05-07T12:51:04.864Z,24.09
2018-05-07T12:52:05.114Z,24.06
2018-05-07T12:53:05.317Z,24.1
2018-05-07T12:54:05.114Z,24.1
2018-05-07T12:55:04.861Z,24.12
2018-05-07T12:56:04.869Z,24.15
2018-05-07T12:57:05.122Z,24.18
2018-05-07T12:58:05.119Z,24.2
2018-05-07T12:59:05.124Z,24.25
2018-05-07T13:00:05.078Z,24.18